sensor_id;sensor_type;location;lat;lon;timestamp;P1;durP1;ratioP1;P2;durP2;ratioP2
71042;SDS011;58696;52.134;5.500;2023-10-19T00:01:26;6.97;;;4.35;;
71042;SDS011;58696;52.134;5.500;2023-10-19T00:03:54;6.13;;;4.75;;
71042;SDS011;58696;52.134;5.500;2023-10-19T00:06:25;5.93;;;5.10;;
71042;SDS011;58696;52.134;5.500;2023-10-19T00:08:54;6.05;;;5.10;;
71042;SDS011;58696;52.134;5.500;2023-10-19T00:11:25;6.97;;;5.05;;
71042;SDS011;58696;52.134;5.500;2023-10-19T00:13:54;5.80;;;4.97;;
71042;SDS011;58696;52.134;5.500;2023-10-19T00:16:24;8.82;;;5.80;;
71042;SDS011;58696;52.134;5.500;2023-10-19T00:18:56;7.63;;;5.57;;
71042;SDS011;58696;52.134;5.500;2023-10-19T00:21:26;6.20;;;5.43;;
71042;SDS011;58696;52.134;5.500;2023-10-19T00:23:55;8.07;;;5.82;;
71042;SDS011;58696;52.134;5.500;2023-10-19T00:26:24;6.43;;;5.78;;
71042;SDS011;58696;52.134;5.500;2023-10-19T00:28:56;6.43;;;5.68;;
71042;SDS011;58696;52.134;5.500;2023-10-19T00:31:23;8.13;;;6.13;;
71042;SDS011;58696;52.134;5.500;2023-10-19T00:33:55;7.55;;;5.65;;
71042;SDS011;58696;52.134;5.500;2023-10-19T00:36:24;8.50;;;6.05;;
71042;SDS011;58696;52.134;5.500;2023-10-19T00:38:59;8.70;;;6.50;;
71042;SDS011;58696;52.134;5.500;2023-10-19T00:41:39;7.65;;;6.80;;
71042;SDS011;58696;52.134;5.500;2023-10-19T00:44:07;11.35;;;6.00;;
71042;SDS011;58696;52.134;5.500;2023-10-19T00:46:37;10.52;;;6.47;;
71042;SDS011;58696;52.134;5.500;2023-10-19T00:49:05;6.40;;;5.72;;
71042;SDS011;58696;52.134;5.500;2023-10-19T00:51:40;9.98;;;6.53;;
71042;SDS011;58696;52.134;5.500;2023-10-19T00:54:27;8.63;;;6.78;;
71042;SDS011;58696;52.134;5.500;2023-10-19T00:57:00;11.27;;;6.85;;
71042;SDS011;58696;52.134;5.500;2023-10-19T01:02:09;9.02;;;7.18;;
71042;SDS011;58696;52.134;5.500;2023-10-19T01:04:53;7.75;;;6.45;;
71042;SDS011;58696;52.134;5.500;2023-10-19T01:07:29;6.85;;;5.95;;
71042;SDS011;58696;52.134;5.500;2023-10-19T01:09:57;7.35;;;6.55;;
71042;SDS011;58696;52.134;5.500;2023-10-19T01:12:26;8.23;;;6.72;;
71042;SDS011;58696;52.134;5.500;2023-10-19T01:17:57;7.43;;;6.35;;
71042;SDS011;58696;52.134;5.500;2023-10-19T01:20:26;11.25;;;7.15;;
71042;SDS011;58696;52.134;5.500;2023-10-19T01:22:57;7.15;;;6.38;;
71042;SDS011;58696;52.134;5.500;2023-10-19T01:28:23;9.15;;;5.97;;
71042;SDS011;58696;52.134;5.500;2023-10-19T01:31:14;7.97;;;6.35;;
71042;SDS011;58696;52.134;5.500;2023-10-19T01:33:55;9.05;;;6.47;;
71042;SDS011;58696;52.134;5.500;2023-10-19T01:36:31;8.05;;;6.43;;
71042;SDS011;58696;52.134;5.500;2023-10-19T01:39:08;8.50;;;6.25;;
71042;SDS011;58696;52.134;5.500;2023-10-19T01:41:40;12.00;;;7.15;;
71042;SDS011;58696;52.134;5.500;2023-10-19T01:44:08;8.68;;;6.90;;
71042;SDS011;58696;52.134;5.500;2023-10-19T01:46:40;10.60;;;6.95;;
71042;SDS011;58696;52.134;5.500;2023-10-19T01:49:06;8.30;;;6.90;;
71042;SDS011;58696;52.134;5.500;2023-10-19T01:51:38;9.98;;;6.65;;
71042;SDS011;58696;52.134;5.500;2023-10-19T01:54:09;9.30;;;8.25;;
71042;SDS011;58696;52.134;5.500;2023-10-19T01:56:40;10.13;;;7.28;;
71042;SDS011;58696;52.134;5.500;2023-10-19T01:59:11;11.20;;;7.25;;
71042;SDS011;58696;52.134;5.500;2023-10-19T02:01:42;8.02;;;6.97;;
71042;SDS011;58696;52.134;5.500;2023-10-19T02:04:11;8.48;;;7.38;;
71042;SDS011;58696;52.134;5.500;2023-10-19T02:06:39;10.05;;;7.05;;
71042;SDS011;58696;52.134;5.500;2023-10-19T02:09:13;8.27;;;7.35;;
71042;SDS011;58696;52.134;5.500;2023-10-19T02:11:50;11.13;;;7.20;;
71042;SDS011;58696;52.134;5.500;2023-10-19T02:14:27;9.82;;;7.03;;
71042;SDS011;58696;52.134;5.500;2023-10-19T02:17:00;7.22;;;6.45;;
71042;SDS011;58696;52.134;5.500;2023-10-19T02:19:29;8.50;;;6.40;;
71042;SDS011;58696;52.134;5.500;2023-10-19T02:21:59;10.00;;;6.78;;
71042;SDS011;58696;52.134;5.500;2023-10-19T02:24:30;9.73;;;7.50;;
71042;SDS011;58696;52.134;5.500;2023-10-19T02:26:57;7.32;;;6.57;;
71042;SDS011;58696;52.134;5.500;2023-10-19T02:29:24;8.00;;;6.43;;
71042;SDS011;58696;52.134;5.500;2023-10-19T02:31:53;7.32;;;6.40;;
71042;SDS011;58696;52.134;5.500;2023-10-19T02:34:21;9.32;;;6.63;;
71042;SDS011;58696;52.134;5.500;2023-10-19T02:36:49;11.38;;;6.53;;
71042;SDS011;58696;52.134;5.500;2023-10-19T02:39:18;12.60;;;6.90;;
71042;SDS011;58696;52.134;5.500;2023-10-19T02:41:46;7.50;;;6.57;;
71042;SDS011;58696;52.134;5.500;2023-10-19T02:44:20;8.45;;;6.68;;
71042;SDS011;58696;52.134;5.500;2023-10-19T02:46:52;7.80;;;6.15;;
71042;SDS011;58696;52.134;5.500;2023-10-19T02:49:35;10.00;;;5.97;;
71042;SDS011;58696;52.134;5.500;2023-10-19T02:52:05;7.55;;;5.80;;
71042;SDS011;58696;52.134;5.500;2023-10-19T02:54:31;6.15;;;5.55;;
71042;SDS011;58696;52.134;5.500;2023-10-19T02:57:03;7.80;;;5.88;;
71042;SDS011;58696;52.134;5.500;2023-10-19T02:59:38;7.28;;;5.70;;
71042;SDS011;58696;52.134;5.500;2023-10-19T03:02:05;8.95;;;6.20;;
71042;SDS011;58696;52.134;5.500;2023-10-19T03:04:34;9.30;;;6.20;;
71042;SDS011;58696;52.134;5.500;2023-10-19T03:07:03;7.63;;;5.97;;
71042;SDS011;58696;52.134;5.500;2023-10-19T03:09:31;8.18;;;5.35;;
71042;SDS011;58696;52.134;5.500;2023-10-19T03:12:03;8.60;;;5.82;;
71042;SDS011;58696;52.134;5.500;2023-10-19T03:14:36;9.35;;;5.28;;
71042;SDS011;58696;52.134;5.500;2023-10-19T03:17:12;6.07;;;5.30;;
71042;SDS011;58696;52.134;5.500;2023-10-19T03:19:39;7.13;;;5.70;;
71042;SDS011;58696;52.134;5.500;2023-10-19T03:22:06;13.43;;;6.25;;
71042;SDS011;58696;52.134;5.500;2023-10-19T03:24:34;9.02;;;5.78;;
71042;SDS011;58696;52.134;5.500;2023-10-19T03:27:13;8.32;;;5.80;;
71042;SDS011;58696;52.134;5.500;2023-10-19T03:29:45;7.10;;;5.05;;
71042;SDS011;58696;52.134;5.500;2023-10-19T03:32:14;8.30;;;5.32;;
71042;SDS011;58696;52.134;5.500;2023-10-19T03:34:48;7.38;;;5.57;;
71042;SDS011;58696;52.134;5.500;2023-10-19T03:37:17;6.85;;;4.90;;
71042;SDS011;58696;52.134;5.500;2023-10-19T03:39:48;11.15;;;5.45;;
71042;SDS011;58696;52.134;5.500;2023-10-19T03:42:20;6.82;;;5.43;;
71042;SDS011;58696;52.134;5.500;2023-10-19T03:44:55;6.43;;;5.15;;
71042;SDS011;58696;52.134;5.500;2023-10-19T03:47:29;7.63;;;4.57;;
71042;SDS011;58696;52.134;5.500;2023-10-19T03:50:02;7.75;;;5.03;;
71042;SDS011;58696;52.134;5.500;2023-10-19T03:52:40;10.65;;;4.88;;
71042;SDS011;58696;52.134;5.500;2023-10-19T03:55:07;6.13;;;4.60;;
71042;SDS011;58696;52.134;5.500;2023-10-19T03:57:52;5.25;;;4.18;;
71042;SDS011;58696;52.134;5.500;2023-10-19T04:00:21;6.35;;;4.32;;
71042;SDS011;58696;52.134;5.500;2023-10-19T04:02:53;11.70;;;4.97;;
71042;SDS011;58696;52.134;5.500;2023-10-19T04:05:25;5.60;;;4.07;;
71042;SDS011;58696;52.134;5.500;2023-10-19T04:07:54;4.80;;;4.30;;
71042;SDS011;58696;52.134;5.500;2023-10-19T04:10:22;3.97;;;3.35;;
71042;SDS011;58696;52.134;5.500;2023-10-19T04:13:01;8.15;;;4.18;;
71042;SDS011;58696;52.134;5.500;2023-10-19T04:15:28;5.32;;;3.88;;
71042;SDS011;58696;52.134;5.500;2023-10-19T04:18:02;4.38;;;3.63;;
71042;SDS011;58696;52.134;5.500;2023-10-19T04:20:37;7.68;;;3.40;;
71042;SDS011;58696;52.134;5.500;2023-10-19T04:23:14;7.45;;;3.60;;
71042;SDS011;58696;52.134;5.500;2023-10-19T04:25:42;5.75;;;3.10;;
71042;SDS011;58696;52.134;5.500;2023-10-19T04:28:13;5.18;;;2.90;;
71042;SDS011;58696;52.134;5.500;2023-10-19T04:30:49;9.23;;;3.13;;
71042;SDS011;58696;52.134;5.500;2023-10-19T04:33:19;7.18;;;3.00;;
71042;SDS011;58696;52.134;5.500;2023-10-19T04:35:49;7.20;;;2.50;;
71042;SDS011;58696;52.134;5.500;2023-10-19T04:38:24;3.08;;;2.13;;
71042;SDS011;58696;52.134;5.500;2023-10-19T04:40:51;5.43;;;2.55;;
71042;SDS011;58696;52.134;5.500;2023-10-19T04:43:17;4.88;;;2.20;;
71042;SDS011;58696;52.134;5.500;2023-10-19T04:45:47;8.45;;;2.03;;
71042;SDS011;58696;52.134;5.500;2023-10-19T04:48:14;4.15;;;2.15;;
71042;SDS011;58696;52.134;5.500;2023-10-19T04:50:43;6.70;;;2.03;;
71042;SDS011;58696;52.134;5.500;2023-10-19T04:53:12;4.68;;;1.80;;
71042;SDS011;58696;52.134;5.500;2023-10-19T04:55:39;4.03;;;1.70;;
71042;SDS011;58696;52.134;5.500;2023-10-19T04:58:08;1.92;;;1.40;;
71042;SDS011;58696;52.134;5.500;2023-10-19T05:00:39;6.40;;;1.80;;
71042;SDS011;58696;52.134;5.500;2023-10-19T05:03:05;3.13;;;1.45;;
71042;SDS011;58696;52.134;5.500;2023-10-19T05:05:32;2.88;;;1.10;;
71042;SDS011;58696;52.134;5.500;2023-10-19T05:08:02;2.03;;;1.30;;
71042;SDS011;58696;52.134;5.500;2023-10-19T05:10:29;5.22;;;1.25;;
71042;SDS011;58696;52.134;5.500;2023-10-19T05:12:55;7.15;;;1.83;;
71042;SDS011;58696;52.134;5.500;2023-10-19T05:15:22;3.30;;;1.35;;
71042;SDS011;58696;52.134;5.500;2023-10-19T05:17:51;4.45;;;1.85;;
71042;SDS011;58696;52.134;5.500;2023-10-19T05:20:17;10.82;;;1.42;;
71042;SDS011;58696;52.134;5.500;2023-10-19T05:22:47;4.38;;;1.40;;
71042;SDS011;58696;52.134;5.500;2023-10-19T05:25:16;3.50;;;1.30;;
71042;SDS011;58696;52.134;5.500;2023-10-19T05:27:42;2.58;;;1.65;;
71042;SDS011;58696;52.134;5.500;2023-10-19T05:30:12;9.13;;;1.48;;
71042;SDS011;58696;52.134;5.500;2023-10-19T05:32:41;3.42;;;1.20;;
71042;SDS011;58696;52.134;5.500;2023-10-19T05:35:10;3.25;;;1.20;;
71042;SDS011;58696;52.134;5.500;2023-10-19T05:37:39;2.85;;;1.13;;
71042;SDS011;58696;52.134;5.500;2023-10-19T05:40:06;4.82;;;1.40;;
71042;SDS011;58696;52.134;5.500;2023-10-19T05:42:41;3.05;;;1.30;;
71042;SDS011;58696;52.134;5.500;2023-10-19T05:45:08;3.05;;;1.20;;
71042;SDS011;58696;52.134;5.500;2023-10-19T05:47:34;4.55;;;1.30;;
71042;SDS011;58696;52.134;5.500;2023-10-19T05:50:01;5.72;;;1.40;;
71042;SDS011;58696;52.134;5.500;2023-10-19T05:52:29;3.15;;;1.20;;
71042;SDS011;58696;52.134;5.500;2023-10-19T05:54:55;4.35;;;1.17;;
71042;SDS011;58696;52.134;5.500;2023-10-19T05:57:24;3.65;;;1.20;;
71042;SDS011;58696;52.134;5.500;2023-10-19T05:59:53;8.57;;;1.85;;
71042;SDS011;58696;52.134;5.500;2023-10-19T06:02:25;1.42;;;1.00;;
71042;SDS011;58696;52.134;5.500;2023-10-19T06:05:01;1.90;;;1.10;;
71042;SDS011;58696;52.134;5.500;2023-10-19T06:07:27;4.95;;;1.00;;
71042;SDS011;58696;52.134;5.500;2023-10-19T06:09:54;3.75;;;1.00;;
71042;SDS011;58696;52.134;5.500;2023-10-19T06:12:20;9.15;;;1.40;;
71042;SDS011;58696;52.134;5.500;2023-10-19T06:14:47;3.05;;;1.33;;
71042;SDS011;58696;52.134;5.500;2023-10-19T06:17:14;3.65;;;1.35;;
71042;SDS011;58696;52.134;5.500;2023-10-19T06:19:45;9.50;;;1.40;;
71042;SDS011;58696;52.134;5.500;2023-10-19T06:24:44;5.35;;;1.60;;
71042;SDS011;58696;52.134;5.500;2023-10-19T06:27:11;3.95;;;1.40;;
71042;SDS011;58696;52.134;5.500;2023-10-19T06:29:40;4.03;;;1.10;;
71042;SDS011;58696;52.134;5.500;2023-10-19T06:32:10;2.42;;;1.30;;
71042;SDS011;58696;52.134;5.500;2023-10-19T06:34:41;7.43;;;1.17;;
71042;SDS011;58696;52.134;5.500;2023-10-19T06:37:13;5.10;;;1.40;;
71042;SDS011;58696;52.134;5.500;2023-10-19T06:39:41;2.08;;;1.15;;
71042;SDS011;58696;52.134;5.500;2023-10-19T06:42:08;4.05;;;1.40;;
71042;SDS011;58696;52.134;5.500;2023-10-19T06:44:40;6.82;;;1.80;;
71042;SDS011;58696;52.134;5.500;2023-10-19T06:47:11;4.38;;;1.23;;
71042;SDS011;58696;52.134;5.500;2023-10-19T06:49:39;3.50;;;1.60;;
71042;SDS011;58696;52.134;5.500;2023-10-19T06:52:10;3.17;;;1.55;;
71042;SDS011;58696;52.134;5.500;2023-10-19T06:54:39;4.43;;;1.65;;
71042;SDS011;58696;52.134;5.500;2023-10-19T06:57:06;6.50;;;1.63;;
71042;SDS011;58696;52.134;5.500;2023-10-19T06:59:35;8.25;;;1.80;;
71042;SDS011;58696;52.134;5.500;2023-10-19T07:02:05;8.48;;;1.70;;
71042;SDS011;58696;52.134;5.500;2023-10-19T07:04:34;5.78;;;1.73;;
71042;SDS011;58696;52.134;5.500;2023-10-19T07:07:04;4.25;;;1.92;;
71042;SDS011;58696;52.134;5.500;2023-10-19T07:09:30;7.55;;;1.95;;
71042;SDS011;58696;52.134;5.500;2023-10-19T07:11:57;2.22;;;1.60;;
71042;SDS011;58696;52.134;5.500;2023-10-19T07:14:27;5.07;;;1.38;;
71042;SDS011;58696;52.134;5.500;2023-10-19T07:16:57;4.60;;;1.90;;
71042;SDS011;58696;52.134;5.500;2023-10-19T07:19:25;6.35;;;1.90;;
71042;SDS011;58696;52.134;5.500;2023-10-19T07:21:55;3.90;;;1.77;;
71042;SDS011;58696;52.134;5.500;2023-10-19T07:24:32;8.95;;;2.00;;
71042;SDS011;58696;52.134;5.500;2023-10-19T07:27:02;7.40;;;1.90;;
71042;SDS011;58696;52.134;5.500;2023-10-19T07:29:44;2.60;;;1.40;;
71042;SDS011;58696;52.134;5.500;2023-10-19T07:32:13;4.63;;;1.50;;
71042;SDS011;58696;52.134;5.500;2023-10-19T07:34:45;6.20;;;1.77;;
71042;SDS011;58696;52.134;5.500;2023-10-19T07:37:15;7.60;;;1.67;;
71042;SDS011;58696;52.134;5.500;2023-10-19T07:39:47;4.22;;;1.60;;
71042;SDS011;58696;52.134;5.500;2023-10-19T07:42:18;9.07;;;1.73;;
71042;SDS011;58696;52.134;5.500;2023-10-19T07:44:47;9.20;;;1.92;;
71042;SDS011;58696;52.134;5.500;2023-10-19T07:47:14;8.32;;;1.40;;
71042;SDS011;58696;52.134;5.500;2023-10-19T07:49:43;5.88;;;2.13;;
71042;SDS011;58696;52.134;5.500;2023-10-19T07:52:10;2.92;;;1.70;;
71042;SDS011;58696;52.134;5.500;2023-10-19T07:54:37;4.93;;;1.50;;
71042;SDS011;58696;52.134;5.500;2023-10-19T07:57:07;2.08;;;1.33;;
71042;SDS011;58696;52.134;5.500;2023-10-19T07:59:39;6.78;;;2.03;;
71042;SDS011;58696;52.134;5.500;2023-10-19T08:02:05;5.80;;;1.60;;
71042;SDS011;58696;52.134;5.500;2023-10-19T08:04:34;5.18;;;1.60;;
71042;SDS011;58696;52.134;5.500;2023-10-19T08:07:01;8.27;;;1.92;;
71042;SDS011;58696;52.134;5.500;2023-10-19T08:09:30;4.63;;;1.65;;
71042;SDS011;58696;52.134;5.500;2023-10-19T08:12:01;5.10;;;2.03;;
71042;SDS011;58696;52.134;5.500;2023-10-19T08:14:31;7.00;;;1.92;;
71042;SDS011;58696;52.134;5.500;2023-10-19T08:16:58;2.97;;;1.65;;
71042;SDS011;58696;52.134;5.500;2023-10-19T08:19:25;3.10;;;1.58;;
71042;SDS011;58696;52.134;5.500;2023-10-19T08:21:54;9.95;;;2.08;;
71042;SDS011;58696;52.134;5.500;2023-10-19T08:24:22;4.10;;;1.90;;
71042;SDS011;58696;52.134;5.500;2023-10-19T08:26:55;7.57;;;1.77;;
71042;SDS011;58696;52.134;5.500;2023-10-19T08:29:22;6.13;;;1.95;;
71042;SDS011;58696;52.134;5.500;2023-10-19T08:34:19;5.15;;;1.83;;
71042;SDS011;58696;52.134;5.500;2023-10-19T08:36:46;6.50;;;1.80;;
71042;SDS011;58696;52.134;5.500;2023-10-19T08:39:16;7.00;;;1.73;;
71042;SDS011;58696;52.134;5.500;2023-10-19T08:41:44;4.25;;;1.65;;
71042;SDS011;58696;52.134;5.500;2023-10-19T08:44:10;5.70;;;1.85;;
71042;SDS011;58696;52.134;5.500;2023-10-19T08:46:44;14.88;;;2.40;;
71042;SDS011;58696;52.134;5.500;2023-10-19T08:49:12;4.70;;;1.92;;
71042;SDS011;58696;52.134;5.500;2023-10-19T08:51:39;5.65;;;1.17;;
71042;SDS011;58696;52.134;5.500;2023-10-19T08:54:14;5.07;;;1.73;;
71042;SDS011;58696;52.134;5.500;2023-10-19T08:56:41;7.50;;;1.85;;
71042;SDS011;58696;52.134;5.500;2023-10-19T08:59:13;5.60;;;1.48;;
71042;SDS011;58696;52.134;5.500;2023-10-19T09:01:41;6.70;;;1.73;;
71042;SDS011;58696;52.134;5.500;2023-10-19T09:04:11;5.90;;;1.60;;
71042;SDS011;58696;52.134;5.500;2023-10-19T09:06:42;5.68;;;1.67;;
71042;SDS011;58696;52.134;5.500;2023-10-19T09:09:12;10.23;;;2.05;;
71042;SDS011;58696;52.134;5.500;2023-10-19T09:11:51;8.80;;;1.85;;
71042;SDS011;58696;52.134;5.500;2023-10-19T09:14:31;7.65;;;2.53;;
71042;SDS011;58696;52.134;5.500;2023-10-19T09:17:05;12.10;;;2.28;;
71042;SDS011;58696;52.134;5.500;2023-10-19T09:19:35;10.68;;;2.13;;
71042;SDS011;58696;52.134;5.500;2023-10-19T09:22:03;6.53;;;1.85;;
71042;SDS011;58696;52.134;5.500;2023-10-19T09:24:47;10.27;;;2.20;;
71042;SDS011;58696;52.134;5.500;2023-10-19T09:27:20;11.10;;;2.00;;
71042;SDS011;58696;52.134;5.500;2023-10-19T09:29:47;8.88;;;2.38;;
71042;SDS011;58696;52.134;5.500;2023-10-19T09:32:14;6.13;;;2.45;;
71042;SDS011;58696;52.134;5.500;2023-10-19T09:34:44;10.90;;;2.00;;
71042;SDS011;58696;52.134;5.500;2023-10-19T09:37:11;4.88;;;2.13;;
71042;SDS011;58696;52.134;5.500;2023-10-19T09:39:42;9.80;;;1.95;;
71042;SDS011;58696;52.134;5.500;2023-10-19T09:42:10;6.97;;;2.33;;
71042;SDS011;58696;52.134;5.500;2023-10-19T09:47:09;5.13;;;2.10;;
71042;SDS011;58696;52.134;5.500;2023-10-19T09:49:40;8.43;;;2.42;;
71042;SDS011;58696;52.134;5.500;2023-10-19T09:52:11;8.57;;;2.20;;
71042;SDS011;58696;52.134;5.500;2023-10-19T09:54:54;9.02;;;2.70;;
71042;SDS011;58696;52.134;5.500;2023-10-19T09:57:37;7.15;;;1.90;;
71042;SDS011;58696;52.134;5.500;2023-10-19T10:00:10;7.85;;;2.45;;
71042;SDS011;58696;52.134;5.500;2023-10-19T10:02:43;8.75;;;2.50;;
71042;SDS011;58696;52.134;5.500;2023-10-19T10:10:58;7.78;;;1.90;;
71042;SDS011;58696;52.134;5.500;2023-10-19T10:13:43;5.63;;;1.70;;
71042;SDS011;58696;52.134;5.500;2023-10-19T10:18:54;4.78;;;1.90;;
71042;SDS011;58696;52.134;5.500;2023-10-19T10:21:25;6.68;;;1.95;;
71042;SDS011;58696;52.134;5.500;2023-10-19T10:23:59;8.15;;;2.17;;
71042;SDS011;58696;52.134;5.500;2023-10-19T10:29:33;9.10;;;1.73;;
71042;SDS011;58696;52.134;5.500;2023-10-19T10:32:03;9.77;;;2.65;;
71042;SDS011;58696;52.134;5.500;2023-10-19T10:37:09;7.32;;;1.88;;
71042;SDS011;58696;52.134;5.500;2023-10-19T10:39:37;12.60;;;2.65;;
71042;SDS011;58696;52.134;5.500;2023-10-19T10:42:08;10.57;;;2.50;;
71042;SDS011;58696;52.134;5.500;2023-10-19T10:44:41;10.68;;;2.08;;
71042;SDS011;58696;52.134;5.500;2023-10-19T10:47:10;6.07;;;1.90;;
71042;SDS011;58696;52.134;5.500;2023-10-19T10:49:49;10.07;;;2.30;;
71042;SDS011;58696;52.134;5.500;2023-10-19T10:55:07;9.65;;;2.42;;
71042;SDS011;58696;52.134;5.500;2023-10-19T10:57:42;5.38;;;2.00;;
71042;SDS011;58696;52.134;5.500;2023-10-19T11:00:13;11.73;;;2.53;;
71042;SDS011;58696;52.134;5.500;2023-10-19T11:02:59;7.20;;;2.30;;
71042;SDS011;58696;52.134;5.500;2023-10-19T11:10:44;9.15;;;1.83;;
71042;SDS011;58696;52.134;5.500;2023-10-19T11:13:22;7.93;;;1.77;;
71042;SDS011;58696;52.134;5.500;2023-10-19T11:15:53;6.95;;;2.13;;
71042;SDS011;58696;52.134;5.500;2023-10-19T11:21:05;10.00;;;1.70;;
71042;SDS011;58696;52.134;5.500;2023-10-19T11:26:05;5.65;;;1.65;;
71042;SDS011;58696;52.134;5.500;2023-10-19T11:28:36;7.47;;;2.55;;
71042;SDS011;58696;52.134;5.500;2023-10-19T11:33:54;11.93;;;2.05;;
71042;SDS011;58696;52.134;5.500;2023-10-19T11:36:24;10.73;;;2.20;;
71042;SDS011;58696;52.134;5.500;2023-10-19T11:38:52;10.68;;;2.17;;
71042;SDS011;58696;52.134;5.500;2023-10-19T11:41:20;10.63;;;2.40;;
71042;SDS011;58696;52.134;5.500;2023-10-19T11:43:47;10.63;;;1.98;;
71042;SDS011;58696;52.134;5.500;2023-10-19T11:46:24;14.05;;;2.22;;
71042;SDS011;58696;52.134;5.500;2023-10-19T11:48:52;7.45;;;1.85;;
71042;SDS011;58696;52.134;5.500;2023-10-19T11:51:18;7.03;;;2.00;;
71042;SDS011;58696;52.134;5.500;2023-10-19T11:53:45;10.43;;;2.25;;
71042;SDS011;58696;52.134;5.500;2023-10-19T11:56:17;9.45;;;1.92;;
71042;SDS011;58696;52.134;5.500;2023-10-19T11:58:46;7.03;;;2.17;;
71042;SDS011;58696;52.134;5.500;2023-10-19T12:01:14;10.07;;;1.98;;
71042;SDS011;58696;52.134;5.500;2023-10-19T12:03:46;11.40;;;2.47;;
71042;SDS011;58696;52.134;5.500;2023-10-19T12:06:15;8.77;;;1.70;;
71042;SDS011;58696;52.134;5.500;2023-10-19T12:08:50;9.63;;;2.10;;
71042;SDS011;58696;52.134;5.500;2023-10-19T12:11:21;9.23;;;2.00;;
71042;SDS011;58696;52.134;5.500;2023-10-19T12:13:50;12.02;;;2.22;;
71042;SDS011;58696;52.134;5.500;2023-10-19T12:16:17;11.88;;;1.75;;
71042;SDS011;58696;52.134;5.500;2023-10-19T12:18:44;9.57;;;2.42;;
71042;SDS011;58696;52.134;5.500;2023-10-19T12:21:16;7.97;;;2.28;;
71042;SDS011;58696;52.134;5.500;2023-10-19T12:23:56;9.43;;;1.95;;
71042;SDS011;58696;52.134;5.500;2023-10-19T12:26:27;7.10;;;2.10;;
71042;SDS011;58696;52.134;5.500;2023-10-19T12:28:59;8.23;;;2.10;;
71042;SDS011;58696;52.134;5.500;2023-10-19T12:31:33;10.20;;;1.90;;
71042;SDS011;58696;52.134;5.500;2023-10-19T12:34:00;9.60;;;1.87;;
71042;SDS011;58696;52.134;5.500;2023-10-19T12:36:27;8.75;;;2.25;;
71042;SDS011;58696;52.134;5.500;2023-10-19T12:38:54;12.77;;;2.13;;
71042;SDS011;58696;52.134;5.500;2023-10-19T12:41:26;8.40;;;2.42;;
71042;SDS011;58696;52.134;5.500;2023-10-19T12:43:55;11.18;;;1.92;;
71042;SDS011;58696;52.134;5.500;2023-10-19T12:46:29;8.50;;;1.83;;
71042;SDS011;58696;52.134;5.500;2023-10-19T12:49:04;9.82;;;2.33;;
71042;SDS011;58696;52.134;5.500;2023-10-19T12:51:34;9.23;;;2.20;;
71042;SDS011;58696;52.134;5.500;2023-10-19T12:54:01;8.55;;;2.55;;
71042;SDS011;58696;52.134;5.500;2023-10-19T12:56:30;9.70;;;2.78;;
71042;SDS011;58696;52.134;5.500;2023-10-19T12:58:59;10.15;;;2.53;;
71042;SDS011;58696;52.134;5.500;2023-10-19T13:01:28;13.43;;;2.67;;
71042;SDS011;58696;52.134;5.500;2023-10-19T13:03:59;10.45;;;2.80;;
71042;SDS011;58696;52.134;5.500;2023-10-19T13:06:32;6.68;;;2.13;;
71042;SDS011;58696;52.134;5.500;2023-10-19T13:09:02;9.48;;;2.30;;
71042;SDS011;58696;52.134;5.500;2023-10-19T13:11:29;6.13;;;1.85;;
71042;SDS011;58696;52.134;5.500;2023-10-19T13:14:01;15.40;;;2.90;;
71042;SDS011;58696;52.134;5.500;2023-10-19T13:16:28;9.95;;;2.42;;
71042;SDS011;58696;52.134;5.500;2023-10-19T13:18:57;11.57;;;2.50;;
71042;SDS011;58696;52.134;5.500;2023-10-19T13:21:35;18.30;;;2.42;;
71042;SDS011;58696;52.134;5.500;2023-10-19T13:24:01;12.33;;;2.30;;
71042;SDS011;58696;52.134;5.500;2023-10-19T13:26:32;6.70;;;2.50;;
71042;SDS011;58696;52.134;5.500;2023-10-19T13:28:58;8.48;;;3.80;;
71042;SDS011;58696;52.134;5.500;2023-10-19T13:31:25;14.57;;;2.80;;
71042;SDS011;58696;52.134;5.500;2023-10-19T13:33:59;12.70;;;2.10;;
71042;SDS011;58696;52.134;5.500;2023-10-19T13:36:29;7.18;;;2.53;;
71042;SDS011;58696;52.134;5.500;2023-10-19T13:38:58;10.68;;;2.50;;
71042;SDS011;58696;52.134;5.500;2023-10-19T13:41:25;9.27;;;2.30;;
71042;SDS011;58696;52.134;5.500;2023-10-19T13:43:56;9.68;;;2.22;;
71042;SDS011;58696;52.134;5.500;2023-10-19T13:46:22;11.65;;;2.20;;
71042;SDS011;58696;52.134;5.500;2023-10-19T13:48:50;12.02;;;2.38;;
71042;SDS011;58696;52.134;5.500;2023-10-19T13:51:17;11.07;;;2.47;;
71042;SDS011;58696;52.134;5.500;2023-10-19T13:53:47;10.13;;;2.60;;
71042;SDS011;58696;52.134;5.500;2023-10-19T13:56:16;11.90;;;2.05;;
71042;SDS011;58696;52.134;5.500;2023-10-19T13:58:42;9.70;;;2.10;;
71042;SDS011;58696;52.134;5.500;2023-10-19T14:01:14;10.50;;;2.30;;
71042;SDS011;58696;52.134;5.500;2023-10-19T14:03:43;11.45;;;2.95;;
71042;SDS011;58696;52.134;5.500;2023-10-19T14:06:15;6.25;;;2.33;;
71042;SDS011;58696;52.134;5.500;2023-10-19T14:08:43;11.13;;;2.85;;
71042;SDS011;58696;52.134;5.500;2023-10-19T14:11:09;10.48;;;3.03;;
71042;SDS011;58696;52.134;5.500;2023-10-19T14:13:40;11.70;;;2.28;;
71042;SDS011;58696;52.134;5.500;2023-10-19T14:16:14;9.20;;;2.45;;
71042;SDS011;58696;52.134;5.500;2023-10-19T14:18:44;9.75;;;2.08;;
71042;SDS011;58696;52.134;5.500;2023-10-19T14:21:11;11.63;;;2.47;;
71042;SDS011;58696;52.134;5.500;2023-10-19T14:23:40;9.98;;;2.10;;
71042;SDS011;58696;52.134;5.500;2023-10-19T14:26:12;10.93;;;2.63;;
71042;SDS011;58696;52.134;5.500;2023-10-19T14:31:09;8.18;;;1.98;;
71042;SDS011;58696;52.134;5.500;2023-10-19T14:33:39;14.60;;;2.40;;
71042;SDS011;58696;52.134;5.500;2023-10-19T14:36:08;15.48;;;2.30;;
71042;SDS011;58696;52.134;5.500;2023-10-19T14:38:38;7.28;;;2.20;;
71042;SDS011;58696;52.134;5.500;2023-10-19T14:41:08;11.65;;;2.35;;
71042;SDS011;58696;52.134;5.500;2023-10-19T14:43:36;9.57;;;2.50;;
71042;SDS011;58696;52.134;5.500;2023-10-19T14:46:07;13.52;;;2.67;;
71042;SDS011;58696;52.134;5.500;2023-10-19T14:48:34;8.30;;;2.55;;
71042;SDS011;58696;52.134;5.500;2023-10-19T14:51:03;13.40;;;2.75;;
71042;SDS011;58696;52.134;5.500;2023-10-19T14:53:33;6.20;;;2.60;;
71042;SDS011;58696;52.134;5.500;2023-10-19T14:56:02;9.55;;;2.58;;
71042;SDS011;58696;52.134;5.500;2023-10-19T14:58:30;10.38;;;2.28;;
71042;SDS011;58696;52.134;5.500;2023-10-19T15:01:00;15.27;;;2.40;;
71042;SDS011;58696;52.134;5.500;2023-10-19T15:03:27;7.72;;;2.55;;
71042;SDS011;58696;52.134;5.500;2023-10-19T15:05:56;11.02;;;2.40;;
71042;SDS011;58696;52.134;5.500;2023-10-19T15:08:25;10.40;;;3.85;;
71042;SDS011;58696;52.134;5.500;2023-10-19T15:10:57;18.73;;;3.10;;
71042;SDS011;58696;52.134;5.500;2023-10-19T15:13:29;7.97;;;3.40;;
71042;SDS011;58696;52.134;5.500;2023-10-19T15:16:06;7.20;;;2.88;;
71042;SDS011;58696;52.134;5.500;2023-10-19T15:18:36;11.45;;;2.67;;
71042;SDS011;58696;52.134;5.500;2023-10-19T15:21:06;11.15;;;2.85;;
71042;SDS011;58696;52.134;5.500;2023-10-19T15:23:35;9.25;;;2.90;;
71042;SDS011;58696;52.134;5.500;2023-10-19T15:26:01;12.73;;;3.70;;
71042;SDS011;58696;52.134;5.500;2023-10-19T15:28:29;12.07;;;3.60;;
71042;SDS011;58696;52.134;5.500;2023-10-19T15:30:59;12.65;;;4.72;;
71042;SDS011;58696;52.134;5.500;2023-10-19T15:33:26;11.40;;;3.83;;
71042;SDS011;58696;52.134;5.500;2023-10-19T15:35:56;14.57;;;4.88;;
71042;SDS011;58696;52.134;5.500;2023-10-19T15:38:23;14.48;;;4.68;;
71042;SDS011;58696;52.134;5.500;2023-10-19T15:40:50;18.13;;;3.47;;
71042;SDS011;58696;52.134;5.500;2023-10-19T15:43:20;11.75;;;4.10;;
71042;SDS011;58696;52.134;5.500;2023-10-19T15:45:47;7.97;;;4.03;;
71042;SDS011;58696;52.134;5.500;2023-10-19T15:48:15;11.35;;;3.05;;
71042;SDS011;58696;52.134;5.500;2023-10-19T15:50:47;9.88;;;2.33;;
71042;SDS011;58696;52.134;5.500;2023-10-19T15:53:18;12.98;;;3.08;;